Time;durP1;ratioP1;P1;durP2;ratioP2;P2;SDS_P1;SDS_P2;PMS_P1;PMS_P2;Temp;Humidity;BMP_temperature;BMP_pressure;BME280_temperature;BME280_humidity;BME280_pressure;Samples;Min_cycle;Max_cycle;Signal;HPM_P1;HPM_P2
2022/01/18 00:00:15;;;;;;;32.22;6.25;;;15.20;79.00;;;;;;4094253;28;20566;-63
2022/01/18 00:02:39;;;;;;;40.10;5.90;;;15.20;79.10;;;;;;4085120;28;20111;-63
2022/01/18 00:05:04;;;;;;;29.58;6.05;;;15.20;79.10;;;;;;4078713;29;20106;-63
2022/01/18 00:07:27;;;;;;;28.60;5.38;;;15.20;79.10;;;;;;4079587;28;20063;-63
2022/01/18 00:09:50;;;;;;;29.20;6.35;;;15.10;79.10;;;;;;4094040;28;20451;-62
2022/01/18 00:12:31;;;;;;;35.38;6.00;;;15.20;79.30;;;;;;4078766;28;20122;-63
2022/01/18 00:15:15;;;;;;;35.47;6.00;;;15.10;79.30;;;;;;4077350;28;20099;-62
2022/01/18 00:17:50;;;;;;;34.72;6.25;;;15.10;79.40;;;;;;4078030;28;20043;-62
2022/01/18 00:20:19;;;;;;;30.50;5.20;;;15.10;79.50;;;;;;4077888;29;20683;-62
2022/01/18 00:22:42;;;;;;;32.35;6.10;;;15.00;79.60;;;;;;4089807;28;20059;-63
2022/01/18 00:25:06;;;;;;;28.33;5.97;;;15.10;79.60;;;;;;4094105;28;20436;-62
2022/01/18 00:27:29;;;;;;;26.35;5.82;;;15.00;79.60;;;;;;4093814;28;20106;-63
2022/01/18 00:30:03;;;;;;;33.00;5.18;;;15.00;79.70;;;;;;4076593;29;20099;-63
2022/01/18 00:32:36;;;;;;;33.58;5.38;;;15.00;79.70;;;;;;4077708;29;20084;-63
2022/01/18 00:34:59;;;;;;;32.45;5.57;;;15.00;79.80;;;;;;4077938;28;20055;-63
2022/01/18 00:37:33;;;;;;;35.28;6.13;;;15.00;79.70;;;;;;4089962;28;20079;-63
2022/01/18 00:39:56;;;;;;;33.55;5.53;;;15.00;79.80;;;;;;4077798;29;20056;-63
2022/01/18 00:42:19;;;;;;;36.20;6.13;;;15.00;80.00;;;;;;4078555;29;20099;-63
2022/01/18 00:44:42;;;;;;;33.15;5.95;;;15.00;80.10;;;;;;4077838;28;20043;-63
2022/01/18 00:47:06;;;;;;;30.27;5.15;;;14.90;80.00;;;;;;4078104;28;20052;-63
2022/01/18 00:49:29;;;;;;;25.38;5.60;;;15.00;80.20;;;;;;4086065;28;20106;-63
2022/01/18 00:51:55;;;;;;;28.90;5.20;;;15.00;80.60;;;;;;4094017;28;20094;-63
2022/01/18 00:54:23;;;;;;;33.33;5.97;;;15.00;80.50;;;;;;4092025;28;20832;-63
2022/01/18 00:56:47;;;;;;;22.67;3.75;;;15.10;80.30;;;;;;4093911;28;20055;-63
2022/01/18 00:59:10;;;;;;;27.15;5.13;;;15.10;80.00;;;;;;4078070;29;20051;-63
2022/01/18 01:01:36;;;;;;;25.90;5.38;;;15.20;79.90;;;;;;4075896;28;20087;-63
2022/01/18 01:04:02;;;;;;;22.77;4.72;;;15.30;79.60;;;;;;4077863;29;20353;-63
2022/01/18 01:06:25;;;;;;;24.40;5.45;;;15.30;79.50;;;;;;4086191;28;20122;-63
2022/01/18 01:08:49;;;;;;;31.05;5.35;;;15.30;79.40;;;;;;4093929;28;20127;-63
2022/01/18 01:11:13;;;;;;;23.52;4.68;;;15.30;79.30;;;;;;4091880;28;20099;-63
2022/01/18 01:13:38;;;;;;;23.08;4.40;;;15.30;79.10;;;;;;4093582;28;20047;-62
2022/01/18 01:16:15;;;;;;;28.00;5.22;;;15.30;79.00;;;;;;4088502;28;20413;-63
2022/01/18 01:18:47;;;;;;;30.77;5.28;;;15.30;78.90;;;;;;4077589;28;20055;-62
2022/01/18 01:34:57;;;;;;;25.65;5.18;;;15.20;79.30;;;;;;4045193;29;20551;-63
2022/01/18 01:43:10;;;;;;;27.30;4.63;;;15.30;79.20;;;;;;4095078;28;20491;-63
2022/01/18 01:45:35;;;;;;;31.13;5.28;;;15.30;78.90;;;;;;4094935;28;20046;-62
2022/01/18 01:48:00;;;;;;;30.50;5.97;;;15.30;78.70;;;;;;4096264;28;20047;-63
2022/01/18 01:50:26;;;;;;;31.58;5.82;;;15.40;78.70;;;;;;4096277;28;20055;-62
2022/01/18 01:52:54;;;;;;;39.92;6.70;;;15.40;78.50;;;;;;4095662;28;20051;-63
2022/01/18 01:55:19;;;;;;;30.67;4.95;;;15.40;78.40;;;;;;4096206;28;20526;-63
2022/01/18 01:57:42;;;;;;;23.98;4.22;;;15.40;78.40;;;;;;4080342;29;20389;-63
2022/01/18 02:00:10;;;;;;;20.55;4.07;;;15.40;78.40;;;;;;4081005;28;20453;-63
2022/01/18 02:02:33;;;;;;;24.02;4.55;;;15.30;78.30;;;;;;4079836;29;20051;-62
2022/01/18 02:04:57;;;;;;;27.73;5.07;;;15.30;78.40;;;;;;4080086;29;20051;-63
2022/01/18 02:07:20;;;;;;;25.45;4.88;;;15.30;78.40;;;;;;4095959;28;20436;-63
2022/01/18 02:09:43;;;;;;;19.25;4.50;;;15.30;78.70;;;;;;4095444;28;20044;-63
2022/01/18 02:12:07;;;;;;;29.50;5.65;;;15.30;78.90;;;;;;4096039;28;20106;-63
2022/01/18 02:14:31;;;;;;;22.75;5.20;;;15.40;78.60;;;;;;4095729;28;20059;-62
2022/01/18 02:22:19;;;;;;;22.02;4.03;;;15.60;77.70;;;;;;4095122;28;20047;-62
2022/01/18 02:24:42;;;;;;;20.52;4.35;;;15.60;77.50;;;;;;4095820;28;20088;-62
2022/01/18 02:27:05;;;;;;;21.17;4.97;;;15.60;77.50;;;;;;4095774;28;20089;-62
2022/01/18 02:29:28;;;;;;;17.60;4.32;;;15.60;77.50;;;;;;4095694;28;20114;-62
2022/01/18 02:31:52;;;;;;;19.92;3.40;;;15.60;77.50;;;;;;4095922;28;20098;-62
2022/01/18 02:34:17;;;;;;;17.15;4.05;;;15.60;77.50;;;;;;4088470;28;20118;-62
2022/01/18 02:36:39;;;;;;;18.92;3.08;;;15.60;77.60;;;;;;4092240;28;22771;-62
2022/01/18 02:39:04;;;;;;;21.00;3.60;;;15.60;77.60;;;;;;4095030;28;20055;-62
2022/01/18 02:41:30;;;;;;;23.48;4.53;;;15.60;77.50;;;;;;4094057;28;20082;-62
2022/01/18 02:43:56;;;;;;;18.85;4.13;;;15.50;77.60;;;;;;4094947;28;20488;-62
2022/01/18 02:46:19;;;;;;;25.23;4.28;;;15.50;77.70;;;;;;4095496;28;20059;-62
2022/01/18 02:48:42;;;;;;;18.58;4.03;;;15.50;77.80;;;;;;4095544;28;20107;-62
2022/01/18 02:51:06;;;;;;;21.52;3.97;;;15.50;77.80;;;;;;4093869;28;20102;-62
2022/01/18 02:53:29;;;;;;;16.58;4.55;;;15.50;77.80;;;;;;4081792;28;20063;-62
2022/01/18 02:55:55;;;;;;;17.63;3.55;;;15.60;77.80;;;;;;4079445;28;20048;-62
2022/01/18 02:58:25;;;;;;;16.48;3.63;;;15.60;77.80;;;;;;4079646;28;20043;-62
2022/01/18 03:03:11;;;;;;;18.77;3.55;;;15.60;77.80;;;;;;4078712;28;20051;-62
2022/01/18 03:03:33;;;;;;;17.52;3.97;;;15.50;78.00;;;;;;4091224;28;20365;-62
2022/01/18 03:05:57;;;;;;;19.98;4.13;;;15.60;78.00;;;;;;4095116;28;20055;-62
2022/01/18 03:08:20;;;;;;;14.32;3.53;;;15.60;77.80;;;;;;4093773;28;20388;-62
2022/01/18 03:10:43;;;;;;;15.98;3.95;;;15.60;77.70;;;;;;4095244;28;20101;-62
2022/01/18 03:13:08;;;;;;;19.48;4.05;;;15.70;78.40;;;;;;4086088;28;20103;-62
2022/01/18 03:15:32;;;;;;;19.10;3.97;;;15.70;77.30;;;;;;4079081;28;20857;-62
2022/01/18 03:17:55;;;;;;;19.27;3.85;;;15.70;77.20;;;;;;4079198;29;20444;-62
2022/01/18 03:20:19;;;;;;;18.30;3.47;;;15.70;77.20;;;;;;4079118;29;20114;-62
2022/01/18 03:22:42;;;;;;;21.73;4.10;;;15.70;77.20;;;;;;4079751;28;20472;-62
2022/01/18 03:25:24;;;;;;;18.15;3.53;;;15.70;77.30;;;;;;4084781;28;20118;-62
2022/01/18 03:28:06;;;;;;;18.58;3.40;;;15.70;77.30;;;;;;4078446;29;20103;-63
2022/01/18 03:30:30;;;;;;;16.13;3.15;;;15.60;77.50;;;;;;4078368;29;20111;-63
2022/01/18 03:32:53;;;;;;;14.73;3.38;;;15.60;77.70;;;;;;4082669;28;20047;-62
2022/01/18 03:35:16;;;;;;;16.85;2.92;;;15.60;77.50;;;;;;4094938;28;20054;-62
2022/01/18 03:37:42;;;;;;;15.07;2.90;;;15.60;77.40;;;;;;4094687;28;20110;-63
2022/01/18 03:40:07;;;;;;;18.45;3.42;;;15.60;77.40;;;;;;4089622;28;20051;-62
2022/01/18 03:42:38;;;;;;;17.17;3.03;;;15.60;77.40;;;;;;4082172;28;20059;-62
2022/01/18 03:45:04;;;;;;;17.67;3.47;;;15.60;77.40;;;;;;4087646;28;20043;-62
2022/01/18 03:47:28;;;;;;;14.07;3.47;;;15.60;77.70;;;;;;4064516;28;20059;-62
2022/01/18 03:49:51;;;;;;;13.07;3.10;;;15.70;77.70;;;;;;4083352;28;20579;-62
2022/01/18 03:52:14;;;;;;;12.82;2.92;;;15.70;77.40;;;;;;4078709;29;20456;-61
2022/01/18 03:54:42;;;;;;;16.95;3.10;;;15.80;77.20;;;;;;4089367;28;20054;-62
2022/01/18 03:57:06;;;;;;;18.15;3.45;;;15.80;76.90;;;;;;4082879;28;20042;-62
2022/01/18 03:59:29;;;;;;;16.65;3.08;;;15.80;76.70;;;;;;4092264;28;20047;-59
2022/01/18 04:01:52;;;;;;;16.73;2.50;;;15.80;76.60;;;;;;4085723;28;20694;-59
2022/01/18 04:04:19;;;;;;;13.32;3.28;;;15.80;76.60;;;;;;4077822;29;20048;-58
2022/01/18 04:06:42;;;;;;;14.13;3.50;;;15.90;76.70;;;;;;4078726;28;20051;-59
2022/01/18 04:09:05;;;;;;;17.95;3.55;;;15.80;76.50;;;;;;4094258;28;20062;-59
2022/01/18 04:11:28;;;;;;;13.00;2.10;;;15.90;76.60;;;;;;4093939;28;20119;-59
2022/01/18 04:13:51;;;;;;;19.92;3.85;;;15.80;76.60;;;;;;4088782;28;20116;-59
2022/01/18 04:16:15;;;;;;;15.35;3.00;;;15.80;76.70;;;;;;4078791;29;20083;-58
2022/01/18 04:18:47;;;;;;;17.50;2.92;;;15.80;76.90;;;;;;4093720;28;20059;-60
2022/01/18 04:29:13;;;;;;;14.00;2.33;;;15.80;76.70;;;;;;4077465;29;20484;-58
2022/01/18 04:31:37;;;;;;;16.33;2.83;;;15.80;76.80;;;;;;4078430;28;20118;-59
2022/01/18 04:34:01;;;;;;;10.27;2.47;;;15.80;76.90;;;;;;4078270;29;20059;-59
2022/01/18 04:36:26;;;;;;;10.68;2.58;;;15.70;77.80;;;;;;4078226;29;20059;-58
2022/01/18 04:38:49;;;;;;;12.00;2.53;;;15.70;77.10;;;;;;4077586;29;20083;-59
2022/01/18 04:41:16;;;;;;;10.35;2.33;;;15.70;77.60;;;;;;4078257;29;20044;-61
2022/01/18 04:43:52;;;;;;;12.80;1.98;;;15.80;77.40;;;;;;4078379;29;20470;-58
2022/01/18 04:49:12;;;;;;;12.02;2.60;;;15.90;76.60;;;;;;4072399;29;20051;-59
2022/01/18 04:51:36;;;;;;;10.35;2.28;;;16.00;76.40;;;;;;4062630;29;20056;-58
2022/01/18 04:54:01;;;;;;;13.45;3.40;;;15.90;76.20;;;;;;4076639;28;20086;-59
2022/01/18 04:57:51;;;;;;;9.52;1.92;;;15.90;76.00;;;;;;4089630;28;20110;-59
2022/01/18 04:59:11;;;;;;;10.98;2.05;;;15.90;76.20;;;;;;4077098;29;20075;-59
2022/01/18 05:01:35;;;;;;;9.80;2.42;;;15.90;76.40;;;;;;4078899;29;20095;-59
2022/01/18 05:03:59;;;;;;;10.57;2.95;;;15.90;76.30;;;;;;4081230;29;20056;-59
2022/01/18 05:06:22;;;;;;;10.25;1.90;;;16.00;76.30;;;;;;4092456;28;20055;-62
2022/01/18 05:08:47;;;;;;;8.13;2.03;;;15.90;76.00;;;;;;4097246;28;20427;-62
2022/01/18 05:11:14;;;;;;;8.77;2.45;;;16.00;76.10;;;;;;4097288;28;20059;-62
2022/01/18 05:14:05;;;;;;;9.40;1.98;;;15.90;76.00;;;;;;4097465;28;20090;-63
2022/01/18 05:16:48;;;;;;;14.02;2.80;;;15.90;76.20;;;;;;4094584;28;20158;-61
2022/01/18 05:19:18;;;;;;;11.18;2.13;;;15.90;76.30;;;;;;4096411;28;20118;-61
2022/01/18 05:24:25;;;;;;;13.10;2.55;;;15.80;76.80;;;;;;4096508;28;20133;-62
2022/01/18 05:26:49;;;;;;;14.18;1.77;;;15.80;77.00;;;;;;4081749;28;20103;-61
2022/01/18 05:29:12;;;;;;;9.70;2.15;;;15.70;78.00;;;;;;4081295;29;20056;-62
2022/01/18 05:31:35;;;;;;;7.60;1.85;;;15.80;77.30;;;;;;4108840;28;20054;-61
2022/01/18 05:33:58;;;;;;;9.68;2.00;;;15.90;77.40;;;;;;4096866;28;20054;-62
2022/01/18 05:36:21;;;;;;;11.77;2.30;;;15.90;77.00;;;;;;4085456;28;20135;-61
2022/01/18 05:38:44;;;;;;;11.57;2.65;;;16.00;77.40;;;;;;4080733;28;20110;-61
2022/01/18 05:41:11;;;;;;;8.32;2.13;;;16.10;76.10;;;;;;4080779;28;20472;-61
2022/01/18 05:43:34;;;;;;;11.07;1.85;;;16.10;75.80;;;;;;4080497;28;20056;-61
2022/01/18 05:45:57;;;;;;;15.05;2.53;;;16.20;75.60;;;;;;4088129;28;20482;-61
2022/01/18 05:48:20;;;;;;;9.73;2.25;;;16.20;75.60;;;;;;4080568;28;20055;-62
2022/01/18 05:50:43;;;;;;;8.65;2.03;;;16.20;75.50;;;;;;4080467;28;20052;-62
2022/01/18 05:53:06;;;;;;;12.82;2.10;;;16.20;75.50;;;;;;4080473;28;20048;-62
2022/01/18 05:55:30;;;;;;;7.40;1.27;;;16.10;75.60;;;;;;4096250;28;20454;-62
2022/01/18 05:57:54;;;;;;;7.90;1.42;;;16.10;76.60;;;;;;4095760;28;20470;-61
2022/01/18 06:00:22;;;;;;;5.28;1.50;;;16.10;75.90;;;;;;4095785;28;20055;-61
2022/01/18 06:02:58;;;;;;;6.20;2.00;;;16.10;76.00;;;;;;4096141;28;20451;-63
2022/01/18 06:08:12;;;;;;;9.80;1.77;;;16.10;75.80;;;;;;4078256;28;20107;-61
2022/01/18 06:10:35;;;;;;;8.45;1.67;;;16.10;75.90;;;;;;4096351;28;20116;-61
2022/01/18 06:13:02;;;;;;;7.68;1.40;;;16.10;75.80;;;;;;4093874;28;20050;-61
2022/01/18 06:15:25;;;;;;;12.05;1.30;;;16.10;75.80;;;;;;4096227;28;20546;-62
2022/01/18 06:17:48;;;;;;;7.65;1.55;;;16.10;75.90;;;;;;4096276;28;20480;-62
2022/01/18 06:20:12;;;;;;;3.30;0.95;;;16.10;75.90;;;;;;4089613;28;20555;-60
2022/01/18 06:22:35;;;;;;;5.57;1.42;;;16.10;75.90;;;;;;4080579;28;20052;-62
2022/01/18 06:24:59;;;;;;;7.03;1.30;;;16.10;76.10;;;;;;4080147;28;20056;-62
2022/01/18 06:27:22;;;;;;;7.03;1.52;;;16.20;76.10;;;;;;4080171;28;20158;-62
2022/01/18 06:29:46;;;;;;;4.72;1.30;;;16.20;75.60;;;;;;4080032;28;20052;-61
2022/01/18 06:32:09;;;;;;;9.45;1.85;;;16.30;75.40;;;;;;4083793;28;20051;-61
2022/01/18 06:34:32;;;;;;;5.13;1.48;;;16.30;75.20;;;;;;4096026;28;20055;-62
2022/01/18 06:36:55;;;;;;;5.03;1.42;;;16.30;75.00;;;;;;4093858;28;20048;-62
2022/01/18 06:39:18;;;;;;;5.63;1.40;;;16.30;75.00;;;;;;4095771;28;20085;-61
2022/01/18 06:41:41;;;;;;;7.43;2.20;;;16.20;75.00;;;;;;4094992;28;20096;-61
2022/01/18 06:44:05;;;;;;;6.15;1.50;;;16.20;75.20;;;;;;4095776;28;20369;-61
2022/01/18 06:46:29;;;;;;;8.70;1.90;;;16.20;75.40;;;;;;4095774;28;20082;-61
2022/01/18 06:48:53;;;;;;;4.20;1.63;;;16.10;75.50;;;;;;4095877;28;20059;-61
2022/01/18 06:51:16;;;;;;;4.53;1.27;;;16.10;75.80;;;;;;4095528;28;20450;-61
2022/01/18 06:53:45;;;;;;;5.25;1.60;;;16.00;75.90;;;;;;4093519;28;20050;-59
2022/01/18 06:56:08;;;;;;;8.18;1.67;;;16.00;76.10;;;;;;4079428;28;20103;-60
2022/01/18 06:58:31;;;;;;;9.68;1.63;;;15.90;76.50;;;;;;4079823;28;20070;-59
2022/01/18 07:00:54;;;;;;;5.45;1.48;;;15.90;76.70;;;;;;4085717;28;20113;-59
2022/01/18 07:03:19;;;;;;;6.53;1.45;;;16.00;76.60;;;;;;4095645;28;20047;-58
2022/01/18 07:05:44;;;;;;;5.75;1.20;;;16.00;76.50;;;;;;4095727;28;20074;-59
2022/01/18 07:08:09;;;;;;;6.30;1.50;;;16.00;76.50;;;;;;4095664;28;20050;-59
2022/01/18 07:10:33;;;;;;;6.45;1.70;;;16.00;76.60;;;;;;4093598;28;20051;-59
2022/01/18 07:12:57;;;;;;;5.80;1.77;;;16.00;77.40;;;;;;4094199;28;20055;-58
2022/01/18 07:15:20;;;;;;;7.13;1.27;;;16.00;76.30;;;;;;4095316;28;20101;-59
2022/01/18 07:17:43;;;;;;;10.30;1.85;;;16.00;76.30;;;;;;4094913;28;20105;-58
2022/01/18 07:20:10;;;;;;;11.45;1.38;;;16.00;76.30;;;;;;4080605;28;20047;-59
2022/01/18 07:22:34;;;;;;;6.43;1.55;;;16.00;76.30;;;;;;4086313;28;20047;-58
2022/01/18 07:24:58;;;;;;;4.68;1.08;;;16.00;76.70;;;;;;4082974;28;20079;-59
2022/01/18 07:27:21;;;;;;;9.40;2.22;;;16.00;77.20;;;;;;4079121;29;20056;-58
2022/01/18 07:29:45;;;;;;;11.32;2.58;;;16.00;77.90;;;;;;4087778;28;20054;-58
2022/01/18 07:32:10;;;;;;;7.93;1.88;;;16.00;77.70;;;;;;4090735;28;20047;-59
2022/01/18 07:34:34;;;;;;;5.93;1.52;;;16.10;77.40;;;;;;4109376;28;20455;-59
2022/01/18 07:36:59;;;;;;;5.88;1.33;;;16.10;77.10;;;;;;4106672;28;20113;-59
2022/01/18 07:39:21;;;;;;;9.85;1.88;;;16.20;77.00;;;;;;4082390;28;20051;-59
2022/01/18 07:41:44;;;;;;;6.00;1.67;;;16.10;76.80;;;;;;4092673;28;20459;-59
2022/01/18 07:44:07;;;;;;;6.57;1.90;;;16.10;76.80;;;;;;4094516;28;20128;-59
2022/01/18 07:46:31;;;;;;;9.82;1.77;;;16.10;76.80;;;;;;4089330;28;20051;-59
2022/01/18 07:48:53;;;;;;;10.35;1.95;;;16.10;76.90;;;;;;4094030;28;20776;-59
2022/01/18 07:51:17;;;;;;;6.30;1.45;;;16.10;76.90;;;;;;4102010;28;20047;-58
2022/01/18 07:53:41;;;;;;;8.48;1.83;;;16.10;76.80;;;;;;4080679;28;20107;-59
2022/01/18 07:56:04;;;;;;;8.48;2.28;;;16.10;76.80;;;;;;4078902;29;20059;-58
2022/01/18 07:58:27;;;;;;;8.00;2.20;;;16.10;77.00;;;;;;4078365;29;20516;-60
2022/01/18 08:00:50;;;;;;;8.80;2.30;;;16.00;77.00;;;;;;4078850;29;20103;-63
2022/01/18 08:03:14;;;;;;;9.50;2.10;;;16.00;77.30;;;;;;4092444;28;20077;-60
2022/01/18 08:05:38;;;;;;;11.57;2.30;;;16.00;77.40;;;;;;4091982;28;20047;-59
2022/01/18 08:08:05;;;;;;;10.57;2.60;;;16.10;77.30;;;;;;4092265;28;20059;-59
2022/01/18 08:10:30;;;;;;;11.10;3.00;;;16.20;76.70;;;;;;4090624;28;20136;-59
2022/01/18 08:12:53;;;;;;;12.18;2.72;;;16.20;76.40;;;;;;4091530;28;20500;-61
2022/01/18 08:15:20;;;;;;;9.30;2.33;;;16.30;76.20;;;;;;4091984;28;20472;-61
2022/01/18 08:17:49;;;;;;;10.18;2.65;;;16.30;76.10;;;;;;4091662;28;20055;-61
2022/01/18 08:20:13;;;;;;;12.13;3.00;;;16.30;75.90;;;;;;4092069;28;20043;-61
2022/01/18 08:22:37;;;;;;;6.40;1.70;;;16.20;76.00;;;;;;4092010;28;20051;-61
2022/01/18 08:25:00;;;;;;;8.25;2.03;;;16.20;76.10;;;;;;4091692;28;20051;-61
2022/01/18 08:27:30;;;;;;;12.10;2.33;;;16.20;76.20;;;;;;4091453;28;22521;-61
2022/01/18 08:29:53;;;;;;;10.07;3.10;;;16.10;76.30;;;;;;4090547;28;20062;-61
2022/01/18 08:32:17;;;;;;;7.18;2.58;;;16.10;76.60;;;;;;4090556;28;20605;-61
2022/01/18 08:34:40;;;;;;;6.28;2.28;;;16.00;76.70;;;;;;4090154;28;20447;-61
2022/01/18 08:37:04;;;;;;;8.02;2.05;;;15.90;77.00;;;;;;4094913;28;20047;-61
2022/01/18 08:39:27;;;;;;;9.85;2.67;;;15.90;77.10;;;;;;4096620;28;20059;-63
2022/01/18 08:41:50;;;;;;;6.18;2.90;;;15.80;77.30;;;;;;4096687;28;20086;-62
2022/01/18 08:44:15;;;;;;;10.98;3.17;;;15.80;77.60;;;;;;4096233;28;20462;-63
2022/01/18 08:46:38;;;;;;;8.65;3.08;;;15.80;77.70;;;;;;4096537;28;20047;-62
2022/01/18 08:49:01;;;;;;;8.80;2.10;;;15.80;77.90;;;;;;4097049;28;20550;-62
2022/01/18 08:51:25;;;;;;;9.50;3.10;;;15.70;78.10;;;;;;4096609;28;20051;-63
2022/01/18 08:53:50;;;;;;;10.25;2.38;;;15.70;78.20;;;;;;4096547;28;20055;-62
2022/01/18 08:56:13;;;;;;;10.27;2.45;;;15.60;78.30;;;;;;4096724;28;20050;-62
2022/01/18 08:58:42;;;;;;;9.95;2.60;;;15.60;78.50;;;;;;4096017;28;20369;-61
2022/01/18 09:01:07;;;;;;;8.32;1.98;;;15.60;78.60;;;;;;4095389;28;20488;-62
2022/01/18 09:03:31;;;;;;;14.00;2.97;;;15.50;78.70;;;;;;4096846;28;20051;-62
2022/01/18 09:05:56;;;;;;;14.07;3.53;;;15.50;78.70;;;;;;4097417;28;20518;-62
2022/01/18 09:08:21;;;;;;;17.50;3.42;;;15.50;78.70;;;;;;4096559;28;20051;-61
2022/01/18 09:10:47;;;;;;;7.80;2.40;;;15.40;78.90;;;;;;4096837;28;20058;-62
2022/01/18 09:13:10;;;;;;;8.23;2.60;;;15.40;79.10;;;;;;4096921;28;20059;-63
2022/01/18 09:15:34;;;;;;;9.27;3.05;;;15.40;79.20;;;;;;4088674;28;20129;-64
2022/01/18 09:17:58;;;;;;;11.63;3.30;;;15.40;79.70;;;;;;4094957;28;20203;-68
2022/01/18 09:20:24;;;;;;;13.02;2.78;;;15.40;80.60;;;;;;4096139;28;20447;-68
2022/01/18 09:22:49;;;;;;;8.82;2.55;;;15.40;79.90;;;;;;4096271;28;20118;-68
2022/01/18 09:25:17;;;;;;;10.80;2.65;;;15.40;79.90;;;;;;4095763;28;20047;-68
2022/01/18 09:27:40;;;;;;;10.95;2.47;;;15.50;80.00;;;;;;4095542;28;20745;-68
2022/01/18 09:30:05;;;;;;;11.60;2.33;;;15.50;79.50;;;;;;4096375;28;20047;-69
2022/01/18 09:32:28;;;;;;;7.93;2.33;;;15.60;79.10;;;;;;4096305;28;20039;-71
2022/01/18 09:34:54;;;;;;;10.75;2.88;;;15.70;78.70;;;;;;4096892;28;20451;-70
2022/01/18 09:37:17;;;;;;;14.18;2.90;;;15.70;78.40;;;;;;4095345;28;20051;-70
2022/01/18 09:39:39;;;;;;;7.63;2.40;;;15.70;78.20;;;;;;4096567;28;20529;-69
2022/01/18 09:42:06;;;;;;;6.88;2.42;;;15.80;78.00;;;;;;4096228;28;20047;-69
2022/01/18 09:44:30;;;;;;;10.55;2.58;;;15.80;77.50;;;;;;4096051;28;20055;-69
2022/01/18 09:46:54;;;;;;;7.47;2.25;;;15.90;77.30;;;;;;4096406;28;20046;-69
2022/01/18 09:49:18;;;;;;;8.45;1.98;;;15.90;76.90;;;;;;4092933;28;20058;-70
2022/01/18 09:51:42;;;;;;;9.52;2.33;;;15.90;77.00;;;;;;4092067;28;20103;-69
2022/01/18 09:54:05;;;;;;;9.60;2.28;;;15.90;76.90;;;;;;4092827;28;20142;-70
2022/01/18 09:56:28;;;;;;;6.13;2.63;;;15.90;76.90;;;;;;4093043;28;20051;-70
2022/01/18 09:58:52;;;;;;;8.10;2.00;;;15.90;76.90;;;;;;4093858;28;20055;-70
2022/01/18 10:01:15;;;;;;;6.50;1.67;;;15.90;77.00;;;;;;4094075;28;20102;-70
2022/01/18 10:03:39;;;;;;;7.80;2.33;;;15.90;77.10;;;;;;4093013;28;20106;-70
2022/01/18 10:06:04;;;;;;;14.63;1.85;;;15.80;77.00;;;;;;4093454;28;20412;-69
2022/01/18 10:08:31;;;;;;;12.70;2.38;;;15.80;77.10;;;;;;4093277;28;20047;-69
2022/01/18 10:10:57;;;;;;;8.32;2.28;;;15.80;77.30;;;;;;4093667;28;20117;-68
2022/01/18 10:13:21;;;;;;;10.43;2.75;;;15.70;77.10;;;;;;4092537;28;20050;-68
2022/01/18 10:16:02;;;;;;;9.25;2.55;;;15.70;77.60;;;;;;4093496;28;20547;-66
2022/01/18 10:18:38;;;;;;;10.27;1.77;;;15.70;77.60;;;;;;4091750;28;20070;-66
2022/01/18 10:21:01;;;;;;;10.38;2.35;;;15.70;77.80;;;;;;4092600;28;20098;-66
2022/01/18 10:23:25;;;;;;;10.18;3.13;;;15.80;77.50;;;;;;4092713;28;20055;-66
2022/01/18 10:25:50;;;;;;;9.88;2.42;;;15.80;77.20;;;;;;4093136;28;20729;-65
2022/01/18 10:28:29;;;;;;;12.95;2.55;;;15.90;76.90;;;;;;4093084;28;20532;-65
2022/01/18 10:30:52;;;;;;;11.25;2.75;;;16.00;76.50;;;;;;4092611;28;20051;-65
2022/01/18 10:33:18;;;;;;;14.55;2.03;;;16.00;76.30;;;;;;4093296;28;20118;-65
2022/01/18 10:36:03;;;;;;;7.72;1.83;;;16.00;76.00;;;;;;4092860;28;20051;-65
2022/01/18 10:38:26;;;;;;;8.10;1.65;;;16.10;75.60;;;;;;4091691;28;20137;-65
2022/01/18 10:40:50;;;;;;;10.82;1.85;;;16.10;75.60;;;;;;4093187;28;20488;-66
2022/01/18 10:43:29;;;;;;;11.00;1.73;;;16.10;75.50;;;;;;4093209;28;20051;-65
2022/01/18 10:46:11;;;;;;;6.35;1.48;;;16.10;75.60;;;;;;4090872;28;20172;-65
2022/01/18 10:48:45;;;;;;;8.32;1.55;;;16.10;75.80;;;;;;4092323;28;20102;-65
2022/01/18 10:51:26;;;;;;;8.82;1.90;;;16.10;75.90;;;;;;4091278;28;20047;-66
2022/01/18 10:53:58;;;;;;;8.20;1.70;;;16.10;76.00;;;;;;4091912;28;20106;-66
2022/01/18 10:56:22;;;;;;;10.68;1.83;;;16.10;76.00;;;;;;4103835;28;20584;-66
2022/01/18 10:58:48;;;;;;;10.30;2.00;;;16.10;76.40;;;;;;4092551;28;20076;-67
2022/01/18 11:01:17;;;;;;;11.55;2.22;;;16.10;76.60;;;;;;4092121;28;20039;-67
2022/01/18 11:04:08;;;;;;;8.18;1.80;;;16.10;76.50;;;;;;4090739;28;20493;-67
2022/01/18 11:06:31;;;;;;;9.73;1.77;;;16.00;76.40;;;;;;4092403;28;20538;-67
2022/01/18 11:08:54;;;;;;;11.13;2.95;;;16.00;76.70;;;;;;4091518;28;20369;-67
2022/01/18 11:11:27;;;;;;;7.90;2.17;;;16.00;76.70;;;;;;4092306;28;20054;-68
2022/01/18 11:13:50;;;;;;;12.82;3.10;;;16.00;76.70;;;;;;4090950;28;20047;-68
2022/01/18 11:16:23;;;;;;;9.27;2.35;;;15.90;76.90;;;;;;4091945;28;20043;-69
2022/01/18 11:18:47;;;;;;;8.45;2.35;;;15.90;77.30;;;;;;4091877;28;20110;-68
2022/01/18 11:21:11;;;;;;;7.18;2.67;;;15.80;77.50;;;;;;4092309;28;20143;-68
2022/01/18 11:23:36;;;;;;;10.75;2.47;;;15.80;77.70;;;;;;4104627;28;20074;-68
2022/01/18 11:25:59;;;;;;;8.82;2.78;;;15.80;77.90;;;;;;4104448;28;20054;-68
2022/01/18 11:28:26;;;;;;;11.40;2.20;;;15.80;77.80;;;;;;4092564;28;20121;-67
2022/01/18 11:30:50;;;;;;;5.10;1.90;;;16.00;77.40;;;;;;4091879;28;20737;-67
2022/01/18 11:33:15;;;;;;;11.90;2.30;;;16.10;76.80;;;;;;4092313;28;20484;-67
2022/01/18 11:35:46;;;;;;;8.68;2.00;;;16.10;76.40;;;;;;4092454;28;20051;-67
2022/01/18 11:38:12;;;;;;;;;;;16.10;76.10;;;;;;4091953;28;20824;-67
2022/01/18 11:40:46;;;;;;;14.13;3.65;;;16.10;76.10;;;;;;4092322;28;19926;-67
2022/01/18 11:43:10;;;;;;;9.23;2.63;;;16.10;76.00;;;;;;4092067;28;20110;-67
2022/01/18 11:45:39;;;;;;;8.38;2.40;;;16.00;76.20;;;;;;4092480;28;20418;-67
2022/01/18 11:48:06;;;;;;;6.38;2.78;;;16.00;76.40;;;;;;4092156;28;20102;-67
2022/01/18 11:50:30;;;;;;;13.32;3.05;;;16.00;76.60;;;;;;4092183;28;20043;-68
2022/01/18 11:53:22;;;;;;;10.15;3.55;;;15.90;76.70;;;;;;4092519;28;20051;-67
2022/01/18 11:55:46;;;;;;;11.95;2.47;;;15.90;76.80;;;;;;4091337;28;20039;-67
2022/01/18 11:58:12;;;;;;;10.20;2.53;;;15.80;77.20;;;;;;4091781;28;20093;-67
2022/01/18 12:00:49;;;;;;;10.57;2.85;;;15.80;77.40;;;;;;4092050;28;20051;-67
2022/01/18 12:03:21;;;;;;;9.00;2.70;;;15.80;77.40;;;;;;4091493;28;20507;-68
2022/01/18 12:05:44;;;;;;;10.52;2.55;;;15.70;77.30;;;;;;4091064;28;20471;-67
2022/01/18 12:08:08;;;;;;;14.75;4.13;;;15.70;77.80;;;;;;4091831;28;20059;-67
2022/01/18 12:10:45;;;;;;;12.70;3.72;;;15.70;78.90;;;;;;4091743;28;20058;-67
2022/01/18 12:13:11;;;;;;;11.02;3.33;;;15.80;77.80;;;;;;4091401;28;20059;-67
2022/01/18 12:15:56;;;;;;;8.40;3.00;;;15.90;77.40;;;;;;4092101;28;20101;-67
2022/01/18 12:18:21;;;;;;;8.32;2.67;;;15.90;77.00;;;;;;4090534;28;20078;-67
2022/01/18 12:20:45;;;;;;;7.75;1.80;;;15.90;76.90;;;;;;4091846;28;20061;-67
2022/01/18 12:23:09;;;;;;;9.50;2.65;;;16.00;76.60;;;;;;4092147;28;20051;-67
2022/01/18 12:25:35;;;;;;;7.70;2.30;;;16.00;77.30;;;;;;4091863;28;20106;-67
2022/01/18 12:28:02;;;;;;;10.00;2.40;;;16.00;76.40;;;;;;4091281;28;20059;-67
2022/01/18 12:30:39;;;;;;;10.65;2.70;;;16.00;76.40;;;;;;4091455;28;20054;-66
2022/01/18 12:33:19;;;;;;;11.20;2.00;;;16.00;76.50;;;;;;4090926;28;20051;-66
2022/01/18 12:35:42;;;;;;;12.02;2.78;;;16.00;76.20;;;;;;4090856;28;20102;-67
2022/01/18 12:38:10;;;;;;;8.55;2.15;;;16.00;76.20;;;;;;4091523;28;20114;-67
2022/01/18 12:40:43;;;;;;;10.88;2.33;;;16.00;76.10;;;;;;4090914;28;20052;-67
2022/01/18 12:45:52;;;;;;;8.27;2.90;;;16.00;76.20;;;;;;4090594;28;20479;-67
2022/01/18 12:48:15;;;;;;;6.20;2.30;;;16.00;76.40;;;;;;4091880;28;20099;-67
2022/01/18 12:50:43;;;;;;;8.75;2.38;;;16.00;76.40;;;;;;4091884;28;20467;-67
2022/01/18 12:53:08;;;;;;;6.18;1.90;;;16.00;76.20;;;;;;4090923;28;20055;-67
2022/01/18 12:55:36;;;;;;;12.68;2.45;;;16.00;76.10;;;;;;4091638;28;20110;-67
2022/01/18 12:58:02;;;;;;;5.55;2.33;;;16.00;75.90;;;;;;4103488;28;20050;-67
2022/01/18 13:00:25;;;;;;;8.05;2.45;;;15.90;75.90;;;;;;4091809;28;20059;-67
2022/01/18 13:02:48;;;;;;;12.35;2.58;;;15.90;76.00;;;;;;4091910;28;20051;-66
2022/01/18 13:05:11;;;;;;;12.82;2.70;;;15.90;76.10;;;;;;4091634;28;20052;-66
2022/01/18 13:07:49;;;;;;;9.70;2.22;;;15.80;76.20;;;;;;4091325;28;20102;-67
2022/01/18 13:10:12;;;;;;;6.40;1.80;;;15.80;76.30;;;;;;4090927;28;20466;-66
2022/01/18 13:12:39;;;;;;;10.85;2.60;;;15.70;76.50;;;;;;4091515;28;20471;-67
2022/01/18 13:15:05;;;;;;;9.23;2.20;;;15.70;76.60;;;;;;4091360;28;20091;-67
2022/01/18 13:23:03;;;;;;;8.43;2.15;;;15.60;77.10;;;;;;4092364;28;20499;-67